Time,TemperatureF,DewpointF,PressureIn,WindDirection,WindDirectionDegrees,WindSpeedMPH,WindSpeedGustMPH,Humidity,HourlyPrecipIn,Conditions,Clouds,dailyrainin,SolarRadiationWatts/m^2,SoftwareType,DateUTC
2013-06-15 00:02:00,73.9,67.0,29.92,SSE,157,3.0,3.0,79,0.00,,,0.00,0,Wunderground v.1.15,2013-06-15 05:02:00,
2013-06-15 00:08:00,74.0,67.1,29.92,SSE,161,3.0,3.0,79,0.00,,,0.00,0,Wunderground v.1.15,2013-06-15 05:08:00,
2013-06-15 00:13:00,74.1,67.2,29.67,SSE,154,4.0,4.0,79,0.00,,,0.00,0,Wunderground v.1.15,2013-06-15 05:13:00,
2013-06-15 00:23:00,74.3,67.0,30.02,South,172,5.0,10.0,78,0.00,,,0.00,0,Wunderground v.1.15,2013-06-15 05:23:00,
2013-06-15 00:33:00,74.5,67.2,29.95,SSE,148,4.0,4.0,78,0.00,,,0.00,0,Wunderground v.1.15,2013-06-15 05:33:00,
2013-06-15 00:38:00,74.5,67.2,29.91,SSE,148,4.0,5.0,78,0.00,,,0.00,0,Wunderground v.1.15,2013-06-15 05:38:00,
2013-06-15 00:48:00,74.6,66.9,29.84,South,174,4.0,4.0,77,0.00,,,0.00,0,Wunderground v.1.15,2013-06-15 05:48:00,
2013-06-15 00:58:00,74.9,67.2,29.95,SSE,157,4.0,4.0,77,0.00,,,0.00,0,Wunderground v.1.15,2013-06-15 05:58:00,
2013-06-15 01:07:00,74.9,66.8,29.94,South,188,3.0,3.0,76,0.00,,,0.00,0,Wunderground v.1.15,2013-06-15 06:07:00,
2013-06-15 01:13:00,75.0,66.9,29.58,SSE,161,3.0,4.0,76,0.00,,,0.00,0,Wunderground v.1.15,2013-06-15 06:13:00,
2013-06-15 01:22:00,74.9,66.8,30.01,SSW,196,4.0,5.0,76,0.00,,,0.00,0,Wunderground v.1.15,2013-06-15 06:22:00,
2013-06-15 01:32:00,74.9,66.8,30.01,SSE,153,4.0,4.0,76,0.00,,,0.00,0,Wunderground v.1.15,2013-06-15 06:32:00,
2013-06-15 01:38:00,74.9,66.8,30.01,SSW,193,4.0,5.0,76,0.00,,,0.00,0,Wunderground v.1.15,2013-06-15 06:38:00,
2013-06-15 01:47:00,75.0,66.9,30.01,SSW,198,5.0,8.0,76,0.00,,,0.00,0,Wunderground v.1.15,2013-06-15 06:47:00,
2013-06-15 01:57:00,75.2,67.1,30.01,SSW,209,6.0,7.0,76,0.00,,,0.00,0,Wunderground v.1.15,2013-06-15 06:57:00,
2013-06-15 02:02:00,75.3,67.2,29.78,South,186,6.0,9.0,76,0.00,,,0.00,0,Wunderground v.1.15,2013-06-15 07:02:00,
2013-06-15 02:12:00,75.4,67.3,29.58,South,186,7.0,7.0,76,0.00,,,0.00,0,Wunderground v.1.15,2013-06-15 07:12:00,
2013-06-15 02:22:00,75.4,67.3,29.67,SSW,207,9.0,10.0,76,0.00,,,0.00,0,Wunderground v.1.15,2013-06-15 07:22:00,
2013-06-15 02:32:00,75.2,67.1,29.57,SSW,194,9.0,9.0,76,0.00,,,0.00,0,Wunderground v.1.15,2013-06-15 07:32:00,
2013-06-15 02:42:00,74.9,67.2,29.63,SW,218,9.0,9.0,77,0.00,,,0.00,0,Wunderground v.1.15,2013-06-15 07:42:00,
2013-06-15 02:47:00,74.7,67.0,29.62,SSW,213,10.0,10.0,77,0.00,,,0.00,0,Wunderground v.1.15,2013-06-15 07:47:00,
2013-06-15 02:57:00,74.4,67.1,29.62,SW,220,8.0,8.0,78,0.00,,,0.00,0,Wunderground v.1.15,2013-06-15 07:57:00,
2013-06-15 03:07:00,74.4,67.1,29.62,SW,215,8.0,8.0,78,0.00,,,0.00,0,Wunderground v.1.15,2013-06-15 08:07:00,
2013-06-15 03:17:00,74.2,66.9,29.64,SW,215,8.0,8.0,78,0.00,,,0.00,0,Wunderground v.1.15,2013-06-15 08:17:00,
2013-06-15 03:28:00,74.4,67.1,29.89,SW,225,7.0,7.0,78,0.00,,,0.00,0,Wunderground v.1.15,2013-06-15 08:28:00,
2013-06-15 03:33:00,74.4,67.1,29.70,SW,216,7.0,7.0,78,0.00,,,0.00,0,Wunderground v.1.15,2013-06-15 08:33:00,
2013-06-15 03:43:00,74.5,67.2,29.70,NW,319,3.0,5.0,78,0.00,,,0.00,0,Wunderground v.1.15,2013-06-15 08:43:00,
2013-06-15 03:53:00,74.7,67.4,30.06,ENE,61,8.0,14.0,78,0.00,,,0.00,0,Wunderground v.1.15,2013-06-15 08:53:00,
2013-06-15 03:58:00,74.9,67.2,30.00,NNE,23,7.0,7.0,77,0.00,,,0.00,0,Wunderground v.1.15,2013-06-15 08:58:00,
2013-06-15 04:08:00,74.6,65.0,30.04,North,10,10.0,15.0,72,0.00,,,0.00,0,Wunderground v.1.15,2013-06-15 09:08:00,
2013-06-15 04:18:00,73.6,64.4,30.08,NE,36,9.0,10.0,73,0.00,,,0.00,0,Wunderground v.1.15,2013-06-15 09:18:00,
2013-06-15 04:28:00,72.8,64.4,29.98,North,5,10.0,10.0,75,0.00,,,0.01,0,Wunderground v.1.15,2013-06-15 09:28:00,
2013-06-15 04:33:00,71.9,64.7,29.98,ENE,66,9.0,10.0,78,0.00,,,0.01,0,Wunderground v.1.15,2013-06-15 09:33:00,
2013-06-15 04:43:00,70.3,64.9,30.07,SE,128,3.0,6.0,83,0.13,,,0.08,0,Wunderground v.1.15,2013-06-15 09:43:00,
2013-06-15 04:53:00,69.2,64.8,30.05,ESE,103,4.0,5.0,86,0.39,,,0.15,0,Wunderground v.1.15,2013-06-15 09:53:00,
2013-06-15 05:03:00,68.4,64.7,30.03,SE,130,3.0,4.0,88,0.05,,,0.15,0,Wunderground v.1.15,2013-06-15 10:03:00,
2013-06-15 05:08:00,68.2,64.8,30.01,SE,144,3.0,5.0,89,0.04,,,0.15,0,Wunderground v.1.15,2013-06-15 10:08:00,
2013-06-15 05:18:00,68.0,64.6,30.01,SE,140,2.0,4.0,89,0.00,,,0.15,0,Wunderground v.1.15,2013-06-15 10:18:00,
2013-06-15 05:28:00,67.7,64.7,30.00,SSE,164,4.0,6.0,90,0.00,,,0.15,0,Wunderground v.1.15,2013-06-15 10:28:00,
2013-06-15 05:33:00,67.6,64.9,30.01,South,171,5.0,6.0,91,0.00,,,0.15,0,Wunderground v.1.15,2013-06-15 10:33:00,
2013-06-15 05:43:00,67.6,64.9,30.04,SSE,157,5.0,7.0,91,0.00,,,0.15,0,Wunderground v.1.15,2013-06-15 10:43:00,
2013-06-15 05:53:00,67.6,65.2,29.93,SSW,196,5.0,5.0,92,0.00,,,0.15,0,Wunderground v.1.15,2013-06-15 10:53:00,
2013-06-15 05:58:00,67.7,65.3,30.03,SSW,212,5.0,7.0,92,0.00,,,0.15,0,Wunderground v.1.15,2013-06-15 10:58:00,
2013-06-15 06:08:00,67.8,65.4,30.03,South,188,4.0,5.0,92,0.00,,,0.15,9,Wunderground v.1.15,2013-06-15 11:08:00,
2013-06-15 06:18:00,68.0,65.3,29.95,SSE,152,4.0,4.0,91,0.00,,,0.15,7,Wunderground v.1.15,2013-06-15 11:18:00,
2013-06-15 06:23:00,68.1,65.4,29.95,South,178,4.0,4.0,91,0.00,,,0.15,5,Wunderground v.1.15,2013-06-15 11:23:00,
2013-06-15 06:33:00,68.3,65.6,30.04,SSE,157,4.0,6.0,91,0.00,,,0.15,7,Wunderground v.1.15,2013-06-15 11:33:00,
2013-06-15 06:43:00,68.5,65.8,29.93,SSW,212,6.0,11.0,91,0.00,,,0.15,14,Wunderground v.1.15,2013-06-15 11:43:00,
2013-06-15 06:53:00,68.6,65.9,30.00,NE,54,3.0,5.0,91,0.00,,,0.15,18,Wunderground v.1.15,2013-06-15 11:53:00,
2013-06-15 06:58:00,68.5,65.8,29.96,NE,56,5.0,5.0,91,0.00,,,0.15,23,Wunderground v.1.15,2013-06-15 11:58:00,
2013-06-15 07:08:00,68.6,65.9,30.05,ENE,68,5.0,7.0,91,0.00,,,0.15,40,Wunderground v.1.15,2013-06-15 12:08:00,
2013-06-15 07:18:00,68.7,66.0,30.07,East,96,3.0,3.0,91,0.00,,,0.15,58,Wunderground v.1.15,2013-06-15 12:18:00,
2013-06-15 07:23:00,68.7,66.0,30.00,ESE,118,1.0,3.0,91,0.00,,,0.15,70,Wunderground v.1.15,2013-06-15 12:23:00,
2013-06-15 07:33:00,68.9,66.2,30.04,ESE,123,1.0,5.0,91,0.00,,,0.15,91,Wunderground v.1.15,2013-06-15 12:33:00,
2013-06-15 07:43:00,69.2,66.8,29.97,ESE,121,1.0,3.0,92,0.00,,,0.15,109,Wunderground v.1.15,2013-06-15 12:43:00,
2013-06-15 07:53:00,69.5,66.4,29.95,SSE,153,2.0,2.0,90,0.00,,,0.15,127,Wunderground v.1.15,2013-06-15 12:53:00,
2013-06-15 07:58:00,69.6,66.5,30.01,SE,146,2.0,3.0,90,0.00,,,0.15,141,Wunderground v.1.15,2013-06-15 12:58:00,
2013-06-15 08:08:00,70.0,66.9,29.99,SE,131,3.0,3.0,90,0.00,,,0.15,188,Wunderground v.1.15,2013-06-15 13:08:00,
2013-06-15 08:18:00,70.6,67.5,30.06,SSE,156,1.0,1.0,90,0.00,,,0.15,301,Wunderground v.1.15,2013-06-15 13:18:00,
2013-06-15 08:23:00,71.1,67.7,30.06,SE,142,2.0,2.0,89,0.00,,,0.15,281,Wunderground v.1.15,2013-06-15 13:23:00,
2013-06-15 08:33:00,71.8,68.4,30.06,SSE,168,3.0,4.0,89,0.00,,,0.15,320,Wunderground v.1.15,2013-06-15 13:33:00,
2013-06-15 08:43:00,72.2,67.8,30.06,SSE,158,4.0,6.0,86,0.00,,,0.15,186,Wunderground v.1.15,2013-06-15 13:43:00,
2013-06-15 08:48:00,72.1,68.0,29.95,SSE,165,5.0,5.0,87,0.00,,,0.15,195,Wunderground v.1.15,2013-06-15 13:48:00,
2013-06-15 08:58:00,72.0,67.9,29.92,SE,132,6.0,9.0,87,0.00,,,0.15,156,Wunderground v.1.15,2013-06-15 13:58:00,
2013-06-15 09:08:00,72.1,68.0,29.85,SSE,163,5.0,5.0,87,0.00,,,0.15,114,Wunderground v.1.15,2013-06-15 14:08:00,
2013-06-15 09:13:00,72.1,68.0,29.85,SSE,155,5.0,5.0,87,0.00,,,0.15,95,Wunderground v.1.15,2013-06-15 14:13:00,
2013-06-15 09:23:00,72.2,68.1,30.04,SW,218,3.0,7.0,87,0.00,,,0.15,102,Wunderground v.1.15,2013-06-15 14:23:00,
2013-06-15 09:33:00,72.4,68.3,30.05,South,175,6.0,6.0,87,0.00,,,0.15,97,Wunderground v.1.15,2013-06-15 14:33:00,
2013-06-15 09:38:00,72.4,68.6,29.93,South,185,4.0,4.0,88,0.00,,,0.15,100,Wunderground v.1.15,2013-06-15 14:38:00,
2013-06-15 09:43:00,72.5,68.7,30.03,SW,219,3.0,7.0,88,0.00,,,0.15,100,Wunderground v.1.15,2013-06-15 14:43:00,
2013-06-15 09:53:00,72.6,68.8,30.04,SSW,205,7.0,9.0,88,0.00,,,0.15,79,Wunderground v.1.15,2013-06-15 14:53:00,
2013-06-15 10:03:00,73.0,69.2,30.03,South,178,6.0,7.0,88,0.00,,,0.15,162,Wunderground v.1.15,2013-06-15 15:03:00,
2013-06-15 10:08:00,73.3,69.2,29.99,SSW,206,6.0,9.0,87,0.00,,,0.15,234,Wunderground v.1.15,2013-06-15 15:08:00,
2013-06-15 10:18:00,74.2,69.7,29.94,SW,216,5.0,8.0,86,0.00,,,0.16,302,Wunderground v.1.15,2013-06-15 15:18:00,
2013-06-15 10:23:00,74.8,70.3,29.93,South,187,5.0,8.0,86,0.00,,,0.16,378,Wunderground v.1.15,2013-06-15 15:23:00,
2013-06-15 10:33:00,76.0,70.8,30.03,South,186,7.0,8.0,84,0.00,,,0.16,294,Wunderground v.1.15,2013-06-15 15:33:00,
2013-06-15 10:43:00,76.2,70.7,30.03,South,179,6.0,6.0,83,0.00,,,0.16,253,Wunderground v.1.15,2013-06-15 15:43:00,
2013-06-15 10:52:00,76.5,70.9,30.03,SSW,207,5.0,8.0,83,0.00,,,0.16,404,Wunderground v.1.15,2013-06-15 15:52:00,
2013-06-15 11:02:00,77.5,71.9,30.03,SSW,192,6.0,11.0,83,0.00,,,0.16,510,Wunderground v.1.15,2013-06-15 16:02:00,
2013-06-15 11:12:00,78.9,72.2,29.99,SW,218,6.0,8.0,80,0.00,,,0.16,652,Wunderground v.1.15,2013-06-15 16:12:00,
2013-06-15 11:22:00,79.6,72.5,29.94,SSW,213,7.0,9.0,79,0.00,,,0.16,381,Wunderground v.1.15,2013-06-15 16:22:00,
2013-06-15 11:32:00,79.5,72.0,30.03,SSW,197,8.0,10.0,78,0.00,,,0.16,360,Wunderground v.1.15,2013-06-15 16:32:00,
2013-06-15 11:37:00,79.5,72.0,29.85,SSW,198,7.0,7.0,78,0.00,,,0.16,336,Wunderground v.1.15,2013-06-15 16:37:00,
2013-06-15 11:47:00,79.3,71.8,30.03,SSW,203,5.0,5.0,78,0.00,,,0.16,276,Wunderground v.1.15,2013-06-15 16:47:00,
2013-06-15 11:57:00,79.1,71.6,30.03,WSW,238,5.0,5.0,78,0.00,,,0.16,327,Wunderground v.1.15,2013-06-15 16:57:00,
2013-06-15 12:02:00,79.1,71.6,30.03,SSW,206,5.0,5.0,78,0.00,,,0.16,352,Wunderground v.1.15,2013-06-15 17:02:00,
2013-06-15 12:12:00,79.6,72.1,29.98,SSW,209,3.0,6.0,78,0.00,,,0.16,475,Wunderground v.1.15,2013-06-15 17:12:00,
2013-06-15 12:22:00,79.8,71.9,29.93,SSW,213,5.0,7.0,77,0.00,,,0.16,436,Wunderground v.1.15,2013-06-15 17:22:00,
2013-06-15 12:28:00,80.1,72.2,30.02,SSW,209,5.0,7.0,77,0.00,,,0.16,548,Wunderground v.1.15,2013-06-15 17:28:00,
2013-06-15 12:33:00,80.8,72.5,29.85,SSW,213,6.0,7.0,76,0.00,,,0.16,758,Wunderground v.1.15,2013-06-15 17:33:00,
2013-06-15 12:38:00,81.3,72.6,29.85,SSE,159,5.0,5.0,75,0.00,,,0.16,526,Wunderground v.1.15,2013-06-15 17:38:00,
2013-06-15 12:48:00,82.2,73.9,30.01,SSW,212,4.0,4.0,76,0.00,,,0.16,615,Wunderground v.1.15,2013-06-15 17:48:00,
2013-06-15 12:58:00,82.9,73.8,29.84,SW,215,4.0,4.0,74,0.00,,,0.16,425,Wunderground v.1.15,2013-06-15 17:58:00,
2013-06-15 13:08:00,82.3,74.0,29.77,SW,225,2.0,2.0,76,0.00,,,0.16,190,Wunderground v.1.15,2013-06-15 18:08:00,
2013-06-15 13:13:00,81.7,73.4,29.96,SW,219,1.0,2.0,76,0.00,,,0.16,165,Wunderground v.1.15,2013-06-15 18:13:00,
2013-06-15 13:23:00,81.2,73.7,29.86,SW,219,2.0,2.0,78,0.00,,,0.16,153,Wunderground v.1.15,2013-06-15 18:23:00,
2013-06-15 13:33:00,80.6,73.9,29.95,SSW,203,1.0,2.0,80,0.00,,,0.16,197,Wunderground v.1.15,2013-06-15 18:33:00,
2013-06-15 13:43:00,80.6,74.2,29.86,SSW,208,2.0,3.0,81,0.00,,,0.16,288,Wunderground v.1.15,2013-06-15 18:43:00,
2013-06-15 13:48:00,80.9,74.9,29.86,SSW,211,2.0,2.0,82,0.00,,,0.16,311,Wunderground v.1.15,2013-06-15 18:48:00,
2013-06-15 13:58:00,81.7,74.9,30.01,SW,232,2.0,2.0,80,0.00,,,0.16,441,Wunderground v.1.15,2013-06-15 18:58:00,
2013-06-15 14:08:00,83.1,73.9,30.01,SW,236,1.0,1.0,74,0.00,,,0.16,506,Wunderground v.1.15,2013-06-15 19:08:00,
2013-06-15 14:13:00,83.0,74.3,29.50,South,191,3.0,4.0,75,0.00,,,0.16,596,Wunderground v.1.15,2013-06-15 19:13:00,
2013-06-15 14:23:00,82.7,74.4,29.66,South,190,3.0,4.0,76,0.00,,,0.16,332,Wunderground v.1.15,2013-06-15 19:23:00,
2013-06-15 14:33:00,82.6,74.7,29.66,SW,224,3.0,6.0,77,0.00,,,0.16,341,Wunderground v.1.15,2013-06-15 19:33:00,
2013-06-15 14:43:00,82.9,74.2,29.79,SSW,204,2.0,5.0,75,0.00,,,0.16,396,Wunderground v.1.15,2013-06-15 19:43:00,
2013-06-15 14:48:00,83.4,75.4,29.79,SW,235,3.0,4.0,77,0.00,,,0.16,425,Wunderground v.1.15,2013-06-15 19:48:00,
2013-06-15 14:58:00,83.4,74.2,29.79,SSW,207,3.0,4.0,74,0.00,,,0.16,362,Wunderground v.1.15,2013-06-15 19:58:00,
2013-06-15 15:08:00,82.9,74.6,29.79,SW,232,3.0,3.0,76,0.00,,,0.16,394,Wunderground v.1.15,2013-06-15 20:08:00,
2013-06-15 15:18:00,83.4,74.6,28.91,WSW,250,2.0,2.0,75,0.00,,,0.16,264,Wunderground v.1.15,2013-06-15 20:18:00,
2013-06-15 15:28:00,83.0,74.6,28.91,South,182,0.0,2.0,76,0.00,,,0.16,223,Wunderground v.1.15,2013-06-15 20:28:00,
2013-06-15 15:38:00,82.7,74.8,28.91,SSE,153,1.0,1.0,77,0.00,,,0.16,209,Wunderground v.1.15,2013-06-15 20:38:00,
2013-06-15 15:43:00,82.8,74.8,28.91,SSE,155,1.0,1.0,77,0.00,,,0.16,139,Wunderground v.1.15,2013-06-15 20:43:00,
2013-06-15 15:53:00,82.3,75.5,28.91,SSE,167,0.0,0.0,80,0.00,,,0.16,67,Wunderground v.1.15,2013-06-15 20:53:00,
2013-06-15 16:03:00,81.5,74.7,28.91,SSE,147,1.0,4.0,80,0.00,,,0.16,30,Wunderground v.1.15,2013-06-15 21:03:00,
2013-06-15 16:08:00,81.1,74.7,28.91,SE,144,2.0,2.0,81,0.00,,,0.16,21,Wunderground v.1.15,2013-06-15 21:08:00,
2013-06-15 16:18:00,80.8,74.4,28.91,SSE,165,2.0,2.0,81,0.00,,,0.16,14,Wunderground v.1.15,2013-06-15 21:18:00,
2013-06-15 16:28:00,80.5,74.9,28.91,SE,138,1.0,1.0,83,0.00,,,0.16,11,Wunderground v.1.15,2013-06-15 21:28:00,
2013-06-15 16:38:00,79.9,75.0,28.91,SW,219,0.0,0.0,85,0.00,,,0.17,7,Wunderground v.1.15,2013-06-15 21:38:00,
2013-06-15 16:48:00,79.3,75.4,28.91,SW,219,1.0,1.0,88,1.21,,,0.24,0,Wunderground v.1.15,2013-06-15 21:48:00,
2013-06-15 16:53:00,78.9,75.4,28.91,WNW,299,1.0,1.0,89,0.25,,,0.27,0,Wunderground v.1.15,2013-06-15 21:53:00,
2013-06-15 17:03:00,78.4,75.6,28.91,WNW,303,1.0,1.0,91,0.14,,,0.30,0,Wunderground v.1.15,2013-06-15 22:03:00,
2013-06-15 17:08:00,78.3,75.5,28.91,WNW,303,0.0,0.0,91,0.12,,,0.31,0,Wunderground v.1.15,2013-06-15 22:08:00,
2013-06-15 17:18:00,75.5,69.3,28.91,West,266,8.0,24.0,81,1.13,,,0.42,0,Wunderground v.1.15,2013-06-15 22:18:00,
2013-06-15 17:28:00,68.4,65.4,28.91,West,281,23.0,23.0,90,1.08,,,0.64,0,Wunderground v.1.15,2013-06-15 22:28:00,
2013-06-15 17:38:00,67.5,65.4,28.91,SW,231,13.0,14.0,93,1.28,,,0.84,0,Wunderground v.1.15,2013-06-15 22:38:00,
2013-06-15 17:48:00,67.5,65.7,27.94,West,278,6.0,10.0,94,0.86,,,1.01,0,Wunderground v.1.15,2013-06-15 22:48:00,
2013-06-15 17:53:00,67.6,65.8,27.94,West,267,7.0,10.0,94,0.91,,,1.09,0,Wunderground v.1.15,2013-06-15 22:53:00,
2013-06-15 18:03:00,67.7,66.2,27.94,WSW,248,7.0,10.0,95,0.61,,,1.21,0,Wunderground v.1.15,2013-06-15 23:03:00,
2013-06-15 18:13:00,67.9,66.4,27.94,WSW,242,5.0,6.0,95,0.51,,,1.31,0,Wunderground v.1.15,2013-06-15 23:13:00,
2013-06-15 18:23:00,68.1,66.6,28.26,West,262,3.0,6.0,95,0.23,,,1.36,0,Wunderground v.1.15,2013-06-15 23:23:00,
2013-06-15 18:33:00,68.2,66.7,28.26,West,272,5.0,5.0,95,0.20,,,1.39,7,Wunderground v.1.15,2013-06-15 23:33:00,
2013-06-15 18:42:00,68.3,67.1,28.26,West,275,3.0,7.0,96,0.14,,,1.41,11,Wunderground v.1.15,2013-06-15 23:42:00,
2013-06-15 18:50:00,68.3,67.1,28.26,WSW,257,1.0,1.0,96,0.16,,,1.43,12,Wunderground v.1.15,2013-06-15 23:50:00,
2013-06-15 19:00:00,68.3,67.1,27.05,West,277,0.0,0.0,96,0.09,,,1.45,11,Wunderground v.1.15,2013-06-16 00:00:00,
2013-06-15 19:05:00,68.3,67.1,27.05,West,277,0.0,0.0,96,0.09,,,1.45,11,Wunderground v.1.15,2013-06-16 00:05:00,
2013-06-15 19:15:00,68.3,67.1,27.05,West,277,0.0,1.0,96,0.06,,,1.46,14,Wunderground v.1.15,2013-06-16 00:15:00,
2013-06-15 19:25:00,68.3,67.1,27.05,SSW,204,2.0,3.0,96,0.04,,,1.47,14,Wunderground v.1.15,2013-06-16 00:25:00,
2013-06-15 19:35:00,68.3,67.1,27.53,South,191,1.0,1.0,96,0.04,,,1.47,14,Wunderground v.1.15,2013-06-16 00:35:00,
2013-06-15 19:40:00,68.3,67.1,27.53,South,191,1.0,3.0,96,0.04,,,1.47,14,Wunderground v.1.15,2013-06-16 00:40:00,
2013-06-15 19:50:00,68.4,67.2,27.53,South,173,1.0,2.0,96,0.04,,,1.48,14,Wunderground v.1.15,2013-06-16 00:50:00,
2013-06-15 19:55:00,68.3,67.1,28.12,South,173,1.0,2.0,96,0.06,,,1.49,16,Wunderground v.1.15,2013-06-16 00:55:00,
2013-06-15 20:05:00,68.3,67.1,27.92,South,178,1.0,3.0,96,0.07,,,1.50,16,Wunderground v.1.15,2013-06-16 01:05:00,
2013-06-15 20:15:00,68.3,67.1,27.92,SSE,148,2.0,5.0,96,0.04,,,1.50,7,Wunderground v.1.15,2013-06-16 01:15:00,
2013-06-15 20:20:00,68.2,67.0,27.92,SSE,156,3.0,3.0,96,0.00,,,1.50,5,Wunderground v.1.15,2013-06-16 01:20:00,
2013-06-15 20:30:00,68.1,66.9,27.92,South,184,3.0,3.0,96,0.00,,,1.51,0,Wunderground v.1.15,2013-06-16 01:30:00,
2013-06-15 20:40:00,67.9,66.7,27.92,South,178,4.0,7.0,96,0.00,,,1.51,0,Wunderground v.1.15,2013-06-16 01:40:00,
2013-06-15 20:49:00,67.8,66.6,27.92,SSW,197,6.0,6.0,96,0.00,,,1.51,0,Wunderground v.1.15,2013-06-16 01:49:00,
2013-06-15 20:55:00,67.7,66.2,27.92,South,186,6.0,6.0,95,0.00,,,1.51,0,Wunderground v.1.15,2013-06-16 01:55:00,
2013-06-15 21:05:00,67.5,66.0,27.92,SSE,163,6.0,6.0,95,0.00,,,1.51,0,Wunderground v.1.15,2013-06-16 02:05:00,
2013-06-15 21:15:00,67.4,65.6,27.92,South,183,6.0,6.0,94,0.00,,,1.51,0,Wunderground v.1.15,2013-06-16 02:15:00,
2013-06-15 21:24:00,67.4,65.6,27.92,South,171,5.0,6.0,94,0.00,,,1.51,0,Wunderground v.1.15,2013-06-16 02:24:00,
2013-06-15 21:34:00,67.8,65.4,27.92,South,188,6.0,7.0,92,0.00,,,1.51,0,Wunderground v.1.15,2013-06-16 02:34:00,
2013-06-15 21:44:00,68.6,65.5,27.92,South,173,8.0,12.0,90,0.00,,,1.51,0,Wunderground v.1.15,2013-06-16 02:44:00,
2013-06-15 21:49:00,69.1,65.4,27.92,SSW,194,9.0,9.0,88,0.00,,,1.51,0,Wunderground v.1.15,2013-06-16 02:49:00,
2013-06-15 21:59:00,69.7,65.7,27.92,SSW,194,10.0,15.0,87,0.00,,,1.51,0,Wunderground v.1.15,2013-06-16 02:59:00,
2013-06-15 22:09:00,70.0,66.0,27.92,SSW,204,9.0,9.0,87,0.00,,,1.51,0,Wunderground v.1.15,2013-06-16 03:09:00,
2013-06-15 22:19:00,70.1,65.7,27.92,SSW,212,7.0,9.0,86,0.00,,,1.51,0,Wunderground v.1.15,2013-06-16 03:19:00,
2013-06-15 22:29:00,70.4,66.0,29.02,SW,215,5.0,7.0,86,0.00,,,1.51,0,Wunderground v.1.15,2013-06-16 03:29:00,
2013-06-15 22:34:00,70.5,65.8,29.02,SSW,205,4.0,7.0,85,0.00,,,1.51,0,Wunderground v.1.15,2013-06-16 03:34:00,
2013-06-15 22:44:00,70.6,65.9,29.59,SSW,212,2.0,3.0,85,0.00,,,1.51,0,Wunderground v.1.15,2013-06-16 03:44:00,
2013-06-15 22:49:00,70.6,65.9,29.59,SSW,209,2.0,2.0,85,0.00,,,1.51,0,Wunderground v.1.15,2013-06-16 03:49:00,
2013-06-15 22:59:00,70.6,65.5,29.55,SSW,208,3.0,3.0,84,0.00,,,1.51,0,Wunderground v.1.15,2013-06-16 03:59:00,
2013-06-15 23:04:00,70.7,65.6,29.55,SW,217,4.0,7.0,84,0.00,,,1.51,0,Wunderground v.1.15,2013-06-16 04:04:00,
2013-06-15 23:09:00,70.8,65.4,29.55,SSW,202,6.0,6.0,83,0.00,,,1.51,0,Wunderground v.1.15,2013-06-16 04:09:00,
2013-06-15 23:14:00,71.1,65.3,29.99,SW,227,7.0,7.0,82,0.00,,,1.51,0,Wunderground v.1.15,2013-06-16 04:14:00,
2013-06-15 23:19:00,71.3,65.5,30.00,SSW,204,7.0,11.0,82,0.00,,,1.51,0,Wunderground v.1.15,2013-06-16 04:19:00,
2013-06-15 23:24:00,71.5,65.4,30.00,SSW,197,7.0,11.0,81,0.00,,,1.51,0,Wunderground v.1.15,2013-06-16 04:24:00,
2013-06-15 23:34:00,71.7,65.6,30.01,SW,223,6.0,7.0,81,0.00,,,1.51,0,Wunderground v.1.15,2013-06-16 04:34:00,
2013-06-15 23:44:00,71.8,65.3,30.02,West,263,4.0,5.0,80,0.00,,,1.51,0,Wunderground v.1.15,2013-06-16 04:44:00,
2013-06-15 23:49:00,71.8,65.7,30.02,West,264,2.0,2.0,81,0.00,,,1.51,0,Wunderground v.1.15,2013-06-16 04:49:00,
2013-06-15 23:59:00,71.7,65.9,30.02,SSW,202,2.0,4.0,82,0.00,,,1.52,0,Wunderground v.1.15,2013-06-16 04:59:00,